Racecast

Will Greenwood

Granite Bay (CA) · 12 · SFLCA D2SJS D2 · Compare head to head

Athlete rating 122.5 2014 TF season
Best race 122.7 TF
Races 57
Seasons 5 2010 — 2014

RankedNation #9670·CA #1391·CA D2 #604·SJS #127·SJS D2 #39·SFL #32·Team #10 ?

Speed rating — all races

Cross Country

XC speed rating

2013 XC 109.3

Granite Bay (CA) · Grade 12

Date Meet Event Result Place Rating Difficulty PR/SR Flags
2013-10-18 Ancil Hoffman Park 5000m 19:24.7 53rd · 12th on team 109.3 +0.029 ★CR SR CSR RSR

2012 XC 110.4

Granite Bay (CA) · Grade 11

Date Meet Event Result Place Rating Difficulty PR/SR Flags
2012-11-03 Calaveras County Fairgrounds 4828m 18:24 40th · 4th on team 115.1 +0.065 ★PR ★CR SR CSR RSR
2012-10-06 Granite Park 5000m 18:22 29th · 5th on team 112.2 +0.002 ★CR SR CSR RSR
2012-09-08 Granite Park 3218m 12:03.6 2nd · 1st on team 103.8 -0.013 ★CR SR CSR RSR

2011 XC 117.5

Granite Bay (CA) · Grade 10

Date Meet Event Result Place Rating Difficulty PR/SR Flags
2011-11-11 Willow Hills Reservoir Course 3400m 11:50 4th · 1st on team 119.2 +0.043 ★PR ★CR SR CSR
2011-11-05 Calaveras County Fairgrounds 3218m 11:40 3rd · 1st on team 117.0 +0.084 ★CR SR CSR
2011-10-28 William Jessup University 5000m 19:00 60th · 9th on team 110.3 +0.012 ★CR CSR
2011-10-08 Woodward Park 5000m 18:19 69th · 6th on team 114.3 +0.013 ★CR CSR
2011-10-05 Nevada Union High School 5000m 17:42 17th · 2nd on team 121.1 +0.056 ★CR CSR
2011-09-24 Stanford University Golf Course 5000m 17:32 105th · 2nd on team 117.9 +0.002 ★PR ★CR SR CSR
2011-09-10 Granite Park 3540m 11:41 2nd · 1st on team 121.8 -0.001 ★PR ★CR R SR CSR RSR
2011-09-01 Del Oro HS 4000m 14:12 27th · 2nd on team 118.0 +0.031 ★PR ★CR SR CSR RSR

2010 XC 115.3

Granite Bay (CA) · Grade 9

Date Meet Event Result Place Rating Difficulty PR/SR Flags
2010-11-13 Willow Hills Reservoir Course 3200m 11:54 2nd · 1st on team 115.4 +0.088 ★PR ★CR SR CSR
2010-11-06 Calaveras County Fairgrounds 3218m 11:48 2nd · 1st on team 117.7 +0.084 CR CSR
2010-10-29 William Jessup University 3218m 11:00 1st · 1st on team 113.8 -0.017 ★PR ★CR SR CSR
2010-10-16 Willow Hills Reservoir Course 3400m 11:51.1 2nd · 1st on team 119.4 +0.043 PR CR SR CSR
2010-10-06 Nevada Union High School 3218m 11:41 2nd · 1st on team 116.7 +0.085 PR ★CR SR CSR
2010-10-02 Foresthill High School 3218m 11:54.1 1st · 1st on team 111.3 +0.031 PR ★CR SR CSR
2010-09-15 Springview Drive 3000m 10:25 1st · 1st on team 121.0 +0.079 ★PR ★CR R SR CSR RSR
2010-09-02 Del Oro HS 4000m 15:45 19th · 1st on team 107.4 +0.031 PR CR R SR CSR RSR

Track & Field

TF speed rating

2014 TF 121.9

Granite Bay (CA) · Grade 12

Date Meet Event Result Place Rating Difficulty PR/SR Flags
2014-05-15 SFL Finals 800m 2:05.9 25th · 3rd on team 122.5 -0.012
2014-04-23 Woodcreek @ Granite Bay 800m 2:05.4 3rd · 3rd on team 121.2 -0.027
2014-04-19 Woody Wilson Classic 800m 2:05.21 24th · 1st on team 120.8 -0.034
2014-04-09 Nevada Union @ Granite Bay 400m 54.14 1st · 1st on team -0.027 ★PR SR
2014-04-02 Granite Bay at Roseville 800m 2:06.6 5th · 2nd on team 122.5 -0.009
2014-03-29 Thunder Invitational 400m 55.52 17th · 1st on team -0.024 PR SR
2014-03-08 King/Gilbert Invitational 800m 2:03.55 8th · 3rd on team 122.7 -0.027 ★PR ★R SR RSR

2013 TF 119.4

Granite Bay (CA) · Grade 11

Date Meet Event Result Place Rating Difficulty PR/SR Flags
2013-05-09 SFL Championships Finals 800m 2:07.24 24th · 5th on team 121.2 -0.009
2013-05-09 SFL Championships Finals 1600m 5:01.14 25th · 7th on team 115.7 -0.009
2013-04-24 SFL Meet vs. Granite Bay 1600m 4:49.9 4th · 3rd on team 118.5 -0.027
2013-04-17 Granite Bay @ Woodcreek 800m 2:07 3rd · 2nd on team 121.5 -0.012 RSR
2013-04-03 SFL Granite Bay vs Roseville 800m 2:04.8 4th · 2nd on team 121.3 -0.027 PR SR RSR
2013-03-22 Bronco Roundup Distance Carnival 1600m 4:49.8 17th · 2nd on team 117.7 -0.036 SR
2013-03-16 Depth Charge 400m 55.9 20th · 2nd on team -0.020 SR
2013-03-09 King/Gilbert Invitational 800m 2:06.61 11th · 1st on team 119.7 -0.027 RSR
2013-03-02 9th Annual CSUS Track Classic 800m 2:05.89 17th · 2nd on team 119.3 -0.032 PR SR RSR

2012 TF 117.7

Granite Bay (CA) · Grade 10

Date Meet Event Result Place Rating Difficulty PR/SR Flags
2012-05-11 SFL Finals 800m 2:05.97 5th · 2nd on team 120.4 -0.024 PR SR RSR
2012-05-11 SFL Finals 1600m 4:45.88 4th · 2nd on team 119.7 -0.024 ★PR SR
2012-05-11 SFL Finals 800m 2:14.19 22nd · 8th on team 113.0 -0.024
2012-05-02 Granite Bay at Roseville 400m 56.05 4th · 3rd on team -0.009
2012-05-02 Granite Bay at Roseville 800m 2:10.97 2nd · 1st on team 117.5 -0.009
2012-04-25 Rocklin @ Granite Bay 400m 55.54 1st · 1st on team -0.027 PR SR
2012-04-25 Rocklin @ Granite Bay 3200m 10:36 1st · 1st on team 115.1 -0.027 ★PR SR
2012-04-23 Woodcreek @ Granite Bay 1600m 4:50.7 1st · 1st on team 117.6 -0.027
2012-04-23 Woodcreek @ Granite Bay 800m 2:10 1st · 1st on team 116.5 -0.027
2012-04-21 Halden Invitational 800m 2:06.15 2nd · 1st on team 120.2 -0.026 PR SR RSR
2012-04-18 Granite Bay @ Del Oro 1600m 4:47 1st · 1st on team 119.0 -0.024
2012-03-28 SFL #1 vs Nevada Union 1600m 4:47 1st · 1st on team 119.2 -0.027 PR SR RSR
2012-03-10 Bob King - Don Gilbert Invitational 800m 2:09.4 2nd · 1st on team 116.7 -0.027 SR RSR

2011 TF 117.1

Granite Bay (CA) · Grade 9

Date Meet Event Result Place Rating Difficulty PR/SR Flags
2011-05-13 Sierra Foothill League Finals (SFL) 800m 2:09.16 4th · 1st on team 118.7 -0.015 RSR
2011-05-13 Sierra Foothill League Finals (SFL) 800m 2:10.83 9th · 2nd on team 117.2 -0.015
2011-04-30 Sacramento Meet Of Champions 800m 2:10.92 20th · 1st on team 115.0 -0.037
2011-04-27 Granite Bay @ Rocklin 1600m 4:47.2 1st · 1st on team 118.7 -0.024 PR SR RSR
2011-04-15 Woody Wilson Invitational 800m 2:07.16 29th · 3rd on team 117.7 -0.034 PR SR RSR
2011-04-08 Bronco Roundup Distance Carnival 800m 2:07.28 15th · 2nd on team 117.6 -0.036 PR SR RSR
2011-03-12 King Gilbert Invitational 800m 2:10.26 4th · 1st on team 115.7 -0.027
2011-03-05 7th Annual Sacramento State Track Classic 800m 2:08.75 16th · 2nd on team 116.5 -0.032 PR SR RSR